createdAt,value
2018-05-26T00:02:16.570Z,13.90
2018-05-26T00:04:44.046Z,14.33
2018-05-26T00:07:12.288Z,15.37
2018-05-26T00:09:39.741Z,12.13
2018-05-26T00:12:07.942Z,13.97
2018-05-26T00:14:36.191Z,12.50
2018-05-26T00:17:03.647Z,11.90
2018-05-26T00:19:31.376Z,15.73
2018-05-26T00:21:58.858Z,13.43
2018-05-26T00:24:26.307Z,13.50
2018-05-26T00:26:54.158Z,12.20
2018-05-26T00:29:21.634Z,13.10
2018-05-26T00:31:49.082Z,12.57
2018-05-26T00:34:17.407Z,14.20
2018-05-26T00:36:44.881Z,12.97
2018-05-26T00:39:12.385Z,14.77
2018-05-26T00:41:39.859Z,12.17
2018-05-26T00:44:07.331Z,11.40
2018-05-26T00:46:34.782Z,12.40
2018-05-26T00:49:02.285Z,12.60
2018-05-26T00:51:29.761Z,14.50
2018-05-26T00:54:01.876Z,14.00
2018-05-26T00:56:30.099Z,14.53
2018-05-26T00:58:58.350Z,12.07
2018-05-26T01:01:25.825Z,11.30
2018-05-26T01:03:53.278Z,11.20
2018-05-26T01:06:21.380Z,13.50
2018-05-26T01:08:48.832Z,12.50
2018-05-26T01:11:16.322Z,11.60
2018-05-26T01:13:43.754Z,11.30
2018-05-26T01:16:11.242Z,11.30
2018-05-26T01:18:39.071Z,12.90
2018-05-26T01:21:06.522Z,13.60
2018-05-26T01:23:33.983Z,14.00
2018-05-26T01:26:01.438Z,12.70
2018-05-26T01:28:28.918Z,14.20
2018-05-26T01:30:57.072Z,18.57
2018-05-26T01:33:25.279Z,17.53
2018-05-26T01:35:52.730Z,16.10
2018-05-26T01:38:21.361Z,18.37
2018-05-26T01:40:48.839Z,16.70
2018-05-26T01:43:16.287Z,16.73
2018-05-26T01:45:43.742Z,17.73
2018-05-26T01:48:11.243Z,16.13
2018-05-26T01:50:38.718Z,19.07
2018-05-26T01:53:06.945Z,17.37
2018-05-26T01:55:34.406Z,14.20
2018-05-26T01:58:02.698Z,16.30
2018-05-26T02:00:30.163Z,16.43
2018-05-26T02:02:57.623Z,18.23
2018-05-26T02:05:25.704Z,13.40
2018-05-26T02:07:53.150Z,16.30
2018-05-26T02:10:20.609Z,16.90
2018-05-26T02:12:48.096Z,14.40
2018-05-26T02:15:16.329Z,14.00
2018-05-26T02:17:43.775Z,17.10
2018-05-26T02:20:11.232Z,15.57
2018-05-26T02:22:38.681Z,13.37
2018-05-26T02:25:06.140Z,16.33
2018-05-26T02:27:33.623Z,13.60
2018-05-26T02:30:01.091Z,21.87
2018-05-26T02:32:28.541Z,21.27
2018-05-26T02:34:56.003Z,20.40
2018-05-26T02:37:24.233Z,18.43
2018-05-26T02:39:51.716Z,19.63
2018-05-26T02:42:19.210Z,18.97
2018-05-26T02:44:47.413Z,20.43
2018-05-26T02:47:14.910Z,21.17
2018-05-26T02:49:42.352Z,20.67
2018-05-26T02:52:09.833Z,17.67
2018-05-26T02:54:37.309Z,20.33
2018-05-26T02:57:05.546Z,18.93
2018-05-26T02:59:33.053Z,18.93
2018-05-26T03:02:01.267Z,16.40
2018-05-26T03:04:34.450Z,17.77
2018-05-26T03:07:07.675Z,21.23
2018-05-26T03:09:40.858Z,20.67
2018-05-26T03:12:13.891Z,19.17
2018-05-26T03:14:47.487Z,20.50
2018-05-26T03:17:15.734Z,22.23
2018-05-26T03:19:43.223Z,18.70
2018-05-26T03:22:11.460Z,22.80
2018-05-26T03:24:38.914Z,17.93
2018-05-26T03:27:06.395Z,21.17
2018-05-26T03:29:33.851Z,17.10
2018-05-26T03:32:02.107Z,19.63
2018-05-26T03:34:29.554Z,18.23
2018-05-26T03:36:57.026Z,19.00
2018-05-26T03:39:24.478Z,20.83
2018-05-26T03:41:51.943Z,17.60
2018-05-26T03:44:19.419Z,18.97
2018-05-26T03:46:47.654Z,18.20
2018-05-26T03:49:15.107Z,23.90
2018-05-26T03:51:42.570Z,20.10
2018-05-26T03:54:10.035Z,27.07
2018-05-26T03:56:49.314Z,20.33
2018-05-26T03:59:19.331Z,19.47
2018-05-26T04:01:47.566Z,18.00
2018-05-26T04:04:15.481Z,16.63
2018-05-26T04:06:43.675Z,15.30
2018-05-26T04:09:11.493Z,13.93
2018-05-26T04:11:38.940Z,12.90
2018-05-26T04:14:06.384Z,14.93
2018-05-26T04:16:33.850Z,12.87
2018-05-26T04:19:01.754Z,16.40
2018-05-26T04:21:30.219Z,13.77
2018-05-26T04:23:58.459Z,15.90
2018-05-26T04:26:25.926Z,15.73
2018-05-26T04:28:53.406Z,15.77
2018-05-26T04:31:21.630Z,15.20
2018-05-26T04:33:49.127Z,14.27
2018-05-26T04:36:16.743Z,14.23
2018-05-26T04:38:44.202Z,14.70
2018-05-26T04:41:11.662Z,18.40
2018-05-26T04:43:39.150Z,13.00
2018-05-26T04:46:06.624Z,12.77
2018-05-26T04:48:34.111Z,13.00
2018-05-26T04:51:02.338Z,11.13
2018-05-26T04:53:29.820Z,12.33
2018-05-26T04:55:57.261Z,9.87
2018-05-26T04:58:24.726Z,9.67
2018-05-26T05:00:52.170Z,10.33
2018-05-26T05:03:19.629Z,15.80
2018-05-26T05:05:47.603Z,9.77
2018-05-26T05:08:15.044Z,10.63
2018-05-26T05:10:42.522Z,9.27
2018-05-26T05:13:09.991Z,9.37
2018-05-26T05:15:38.194Z,9.40
2018-05-26T05:18:05.647Z,11.53
2018-05-26T05:20:33.131Z,10.77
2018-05-26T05:23:00.623Z,9.00
2018-05-26T05:25:28.066Z,9.60
2018-05-26T05:27:55.514Z,10.70
2018-05-26T05:30:22.978Z,10.30
2018-05-26T05:32:50.440Z,10.37
2018-05-26T05:35:17.882Z,9.67
2018-05-26T05:37:45.355Z,10.27
2018-05-26T05:40:12.827Z,10.27
2018-05-26T05:42:40.290Z,10.00
2018-05-26T05:45:08.502Z,10.20
2018-05-26T05:47:35.946Z,9.80
2018-05-26T05:50:03.412Z,11.00
2018-05-26T05:52:30.859Z,11.37
2018-05-26T05:54:58.546Z,9.50
2018-05-26T05:57:26.019Z,9.77
2018-05-26T05:59:54.085Z,10.57
2018-05-26T06:02:21.554Z,9.67
2018-05-26T06:04:48.993Z,9.63
2018-05-26T06:07:16.445Z,8.67
2018-05-26T06:09:43.917Z,9.77
2018-05-26T06:12:11.380Z,9.43
2018-05-26T06:14:38.846Z,11.77
2018-05-26T06:17:06.296Z,9.90
2018-05-26T06:19:34.747Z,9.67
2018-05-26T06:22:03.353Z,9.60
2018-05-26T06:24:30.818Z,9.03
2018-05-26T06:26:58.627Z,9.43
2018-05-26T06:29:26.876Z,10.17
2018-05-26T06:31:54.318Z,9.63
2018-05-26T06:34:22.176Z,9.10
2018-05-26T06:36:49.654Z,10.30
2018-05-26T06:39:17.120Z,10.47
2018-05-26T06:41:44.581Z,9.57
2018-05-26T06:44:14.652Z,9.80
2018-05-26T06:46:42.711Z,9.83
2018-05-26T06:49:10.892Z,8.53
2018-05-26T06:51:38.345Z,9.33
2018-05-26T06:54:05.818Z,8.20
2018-05-26T06:56:33.254Z,8.77
2018-05-26T06:59:02.127Z,8.80
2018-05-26T07:01:29.585Z,8.73
2018-05-26T07:03:57.034Z,8.40
2018-05-26T07:06:24.510Z,7.83
2018-05-26T07:08:52.194Z,8.00
2018-05-26T07:11:19.660Z,8.03
2018-05-26T07:13:47.110Z,8.33
2018-05-26T07:16:14.571Z,10.97
2018-05-26T07:18:42.014Z,9.17
2018-05-26T07:21:10.106Z,8.63
2018-05-26T07:23:37.558Z,9.77
2018-05-26T07:26:05.046Z,8.93
2018-05-26T07:28:32.495Z,10.17
2018-05-26T07:31:00.364Z,8.00
2018-05-26T07:33:27.839Z,11.20
2018-05-26T07:35:56.034Z,9.10
2018-05-26T07:38:23.492Z,9.10
2018-05-26T07:40:50.967Z,10.00
2018-05-26T07:43:18.519Z,8.80
2018-05-26T07:45:45.957Z,10.20
2018-05-26T07:48:13.418Z,9.70
2018-05-26T07:50:40.947Z,10.20
2018-05-26T07:53:08.429Z,11.03
2018-05-26T07:55:36.668Z,9.83
2018-05-26T07:58:04.109Z,10.33
2018-05-26T08:00:31.889Z,8.07
2018-05-26T08:02:59.341Z,8.20
2018-05-26T08:05:26.888Z,8.90
2018-05-26T08:07:54.313Z,8.50
2018-05-26T08:10:21.758Z,9.70
2018-05-26T08:12:49.243Z,8.87
2018-05-26T08:15:16.694Z,9.80
2018-05-26T08:17:44.141Z,8.30
2018-05-26T08:20:11.610Z,9.17
2018-05-26T08:22:39.078Z,8.43
2018-05-26T08:25:07.293Z,9.50
2018-05-26T08:27:35.535Z,9.07
2018-05-26T08:30:04.526Z,9.47
2018-05-26T08:32:32.402Z,11.83
2018-05-26T08:34:59.878Z,7.77
2018-05-26T08:37:27.323Z,8.43
2018-05-26T08:39:55.555Z,8.13
2018-05-26T08:42:23.033Z,8.53
2018-05-26T08:44:51.406Z,7.37
2018-05-26T08:47:19.643Z,8.53
2018-05-26T08:49:47.132Z,7.87
2018-05-26T08:52:14.583Z,8.43
2018-05-26T08:54:42.047Z,7.87
2018-05-26T08:57:09.482Z,7.70
2018-05-26T08:59:36.938Z,9.70
2018-05-26T09:02:04.418Z,9.10
2018-05-26T09:04:32.955Z,7.73
2018-05-26T09:07:01.202Z,7.67
2018-05-26T09:09:28.656Z,7.70
2018-05-26T09:11:56.130Z,8.00
2018-05-26T09:14:23.562Z,8.20
2018-05-26T09:16:51.024Z,7.90
2018-05-26T09:19:18.469Z,8.00
2018-05-26T09:21:45.997Z,8.23
2018-05-26T09:24:13.398Z,8.00
2018-05-26T09:26:41.437Z,7.63
2018-05-26T09:29:08.896Z,7.53
2018-05-26T09:31:36.354Z,6.93
2018-05-26T09:34:03.814Z,5.80
2018-05-26T09:36:31.255Z,6.57
2018-05-26T09:38:58.733Z,7.30
2018-05-26T09:41:26.194Z,6.83
2018-05-26T09:43:53.667Z,5.50
2018-05-26T09:46:21.844Z,6.73
2018-05-26T09:48:49.290Z,5.83
2018-05-26T09:51:16.757Z,5.67
2018-05-26T09:53:44.207Z,6.47
2018-05-26T09:56:11.650Z,6.30
2018-05-26T09:58:39.118Z,5.13
2018-05-26T10:01:07.722Z,5.97
2018-05-26T10:03:35.161Z,5.30
2018-05-26T10:06:02.650Z,5.30
2018-05-26T10:08:30.750Z,5.60
2018-05-26T10:10:58.225Z,4.60
2018-05-26T10:13:25.683Z,5.07
2018-05-26T10:15:53.109Z,4.93
2018-05-26T10:18:21.331Z,5.60
2018-05-26T10:20:49.216Z,5.20
2018-05-26T10:23:16.690Z,5.90
2018-05-26T10:25:44.126Z,5.40
2018-05-26T10:28:11.582Z,5.50
2018-05-26T10:30:39.057Z,5.97
2018-05-26T10:33:06.517Z,5.00
2018-05-26T10:35:34.072Z,4.90
2018-05-26T10:38:02.949Z,4.33
2018-05-26T10:40:30.457Z,4.77
2018-05-26T10:42:57.886Z,3.87
2018-05-26T10:45:38.456Z,4.00
2018-05-26T10:48:06.694Z,4.70
2018-05-26T10:50:34.607Z,4.90
2018-05-26T10:53:03.967Z,4.50
2018-05-26T10:55:32.195Z,4.27
2018-05-26T10:58:00.398Z,3.83
2018-05-26T11:00:28.703Z,4.90
2018-05-26T11:02:56.591Z,4.03
2018-05-26T11:05:24.028Z,4.97
2018-05-26T11:07:51.482Z,5.33
2018-05-26T11:10:18.967Z,5.93
2018-05-26T11:12:47.174Z,4.73
2018-05-26T11:15:14.656Z,4.40
2018-05-26T11:17:42.130Z,4.70
2018-05-26T11:20:09.579Z,4.53
2018-05-26T11:22:37.052Z,4.90
2018-05-26T11:25:04.494Z,4.20
2018-05-26T11:27:31.949Z,3.90
2018-05-26T11:30:00.299Z,4.80
2018-05-26T11:32:27.782Z,5.17
2018-05-26T11:34:55.242Z,4.00
2018-05-26T11:37:22.738Z,4.47
2018-05-26T11:39:50.134Z,4.33
2018-05-26T11:42:17.630Z,4.60
2018-05-26T11:44:45.708Z,4.50
2018-05-26T11:47:13.165Z,4.23
2018-05-26T11:49:40.647Z,4.37
2018-05-26T11:52:08.846Z,4.60
2018-05-26T11:54:36.304Z,4.40
2018-05-26T11:57:03.760Z,4.40
2018-05-26T11:59:31.236Z,3.90
2018-05-26T12:01:58.709Z,4.37
2018-05-26T12:04:28.157Z,4.63
2018-05-26T12:06:55.618Z,5.73
2018-05-26T12:09:23.087Z,4.67
2018-05-26T12:11:51.158Z,5.23
2018-05-26T12:14:19.097Z,4.30
2018-05-26T12:16:47.483Z,8.10
2018-05-26T12:19:14.970Z,4.57
2018-05-26T12:21:42.423Z,4.90
2018-05-26T12:24:10.712Z,4.73
2018-05-26T12:26:38.181Z,4.37
2018-05-26T12:29:05.632Z,4.23
2018-05-26T12:31:33.175Z,4.80
2018-05-26T12:34:00.712Z,4.03
2018-05-26T12:36:28.118Z,4.27
2018-05-26T12:38:56.403Z,4.90
2018-05-26T12:41:23.873Z,4.70
2018-05-26T12:43:52.233Z,4.50
2018-05-26T12:46:19.706Z,4.57
2018-05-26T12:48:47.196Z,4.70
2018-05-26T12:51:15.141Z,4.50
2018-05-26T12:53:42.580Z,4.40
2018-05-26T12:56:10.063Z,5.30
2018-05-26T12:58:38.267Z,4.30
2018-05-26T13:01:05.733Z,3.90
2018-05-26T13:03:33.205Z,4.17
2018-05-26T13:06:00.656Z,5.13
2018-05-26T13:08:28.118Z,4.63
2018-05-26T13:10:56.629Z,4.07
2018-05-26T13:13:24.065Z,4.93
2018-05-26T13:15:51.799Z,3.83
2018-05-26T13:18:20.268Z,4.00
2018-05-26T13:20:47.707Z,5.67
2018-05-26T13:23:15.930Z,7.20
2018-05-26T13:25:44.170Z,4.20
2018-05-26T13:28:12.401Z,4.50
2018-05-26T13:30:40.739Z,4.40
2018-05-26T13:33:08.215Z,3.73
2018-05-26T13:35:35.708Z,4.40
2018-05-26T13:38:03.175Z,4.60
2018-05-26T13:40:32.009Z,4.27
2018-05-26T13:42:59.458Z,3.43
2018-05-26T13:45:26.914Z,4.37
2018-05-26T13:47:54.353Z,4.20
2018-05-26T13:50:21.835Z,4.40
2018-05-26T13:52:49.350Z,4.80
2018-05-26T13:55:16.840Z,4.50
2018-05-26T13:57:44.251Z,4.00
2018-05-26T14:00:12.002Z,3.83
2018-05-26T14:02:39.462Z,4.37
2018-05-26T14:05:07.835Z,4.17
2018-05-26T14:07:35.318Z,5.33
2018-05-26T14:10:02.798Z,8.63
2018-05-26T14:12:30.254Z,4.80
2018-05-26T14:14:57.713Z,4.07
2018-05-26T14:17:25.195Z,4.20
2018-05-26T14:19:52.668Z,3.97
2018-05-26T14:22:20.142Z,8.57
2018-05-26T14:24:47.616Z,4.40
2018-05-26T14:27:15.062Z,4.40
2018-05-26T14:29:42.539Z,4.40
2018-05-26T14:32:10.758Z,4.27
2018-05-26T14:34:38.645Z,4.63
2018-05-26T14:37:06.088Z,5.60
2018-05-26T14:39:33.551Z,4.70
2018-05-26T14:42:01.022Z,4.33
2018-05-26T14:44:28.490Z,6.03
2018-05-26T14:46:55.940Z,4.50
2018-05-26T14:49:23.389Z,4.70
2018-05-26T14:51:51.247Z,4.40
2018-05-26T14:54:18.694Z,4.80
2018-05-26T14:56:46.134Z,4.47
2018-05-26T14:59:13.938Z,4.00
2018-05-26T15:01:41.385Z,3.80
2018-05-26T15:04:08.866Z,4.87
2018-05-26T15:06:36.322Z,4.10
2018-05-26T15:09:03.816Z,26.17
2018-05-26T15:11:31.263Z,4.20
2018-05-26T15:13:59.158Z,4.67
2018-05-26T15:16:26.647Z,4.43
2018-05-26T15:18:54.122Z,4.53
2018-05-26T15:21:21.617Z,4.80
2018-05-26T15:23:49.088Z,4.60
2018-05-26T15:26:17.707Z,4.73
2018-05-26T15:28:45.178Z,4.67
2018-05-26T15:31:12.646Z,4.27
2018-05-26T15:33:40.887Z,4.90
2018-05-26T15:36:08.346Z,4.63
2018-05-26T15:38:35.834Z,4.67
2018-05-26T15:41:04.058Z,4.37
2018-05-26T15:43:31.534Z,4.47
2018-05-26T15:45:58.971Z,4.17
2018-05-26T15:48:26.417Z,4.37
2018-05-26T15:50:53.902Z,3.57
2018-05-26T15:53:21.369Z,4.60
2018-05-26T15:55:48.818Z,4.27
2018-05-26T15:58:16.266Z,4.40
2018-05-26T16:00:43.718Z,4.47
2018-05-26T16:03:12.040Z,4.60
2018-05-26T16:05:39.513Z,4.13
2018-05-26T16:08:08.551Z,4.23
2018-05-26T16:10:36.032Z,4.80
2018-05-26T16:13:03.965Z,5.63
2018-05-26T16:15:31.391Z,9.20
2018-05-26T16:17:58.855Z,5.77
2018-05-26T16:20:26.327Z,4.40
2018-05-26T16:22:53.799Z,4.27
2018-05-26T16:25:21.273Z,4.57
2018-05-26T16:27:48.954Z,4.60
2018-05-26T16:30:16.426Z,4.80
2018-05-26T16:32:43.892Z,4.93
2018-05-26T16:35:12.107Z,5.10
2018-05-26T16:37:39.579Z,5.57
2018-05-26T16:40:07.042Z,4.80
2018-05-26T16:42:35.291Z,4.07
2018-05-26T16:45:02.774Z,4.37
2018-05-26T16:47:30.238Z,4.90
2018-05-26T16:49:57.691Z,4.13
2018-05-26T16:52:25.161Z,4.00
2018-05-26T16:54:52.928Z,4.53
2018-05-26T16:57:20.396Z,4.77
2018-05-26T16:59:47.826Z,4.43
2018-05-26T17:02:15.307Z,4.27
2018-05-26T17:04:43.554Z,4.83
2018-05-26T17:07:11.823Z,4.93
2018-05-26T17:09:39.291Z,4.50
2018-05-26T17:12:06.738Z,4.80
2018-05-26T17:14:34.970Z,4.47
2018-05-26T17:17:04.001Z,4.13
2018-05-26T17:19:31.471Z,4.93
2018-05-26T17:21:58.910Z,4.70
2018-05-26T17:24:26.386Z,5.47
2018-05-26T17:26:53.866Z,4.23
2018-05-26T17:29:21.330Z,3.90
2018-05-26T17:31:48.775Z,5.00
2018-05-26T17:34:16.590Z,4.57
2018-05-26T17:36:44.030Z,5.47
2018-05-26T17:39:11.510Z,5.60
2018-05-26T17:41:38.987Z,6.30
2018-05-26T17:44:06.447Z,5.03
2018-05-26T17:46:33.905Z,12.53
2018-05-26T17:49:02.551Z,11.13
2018-05-26T17:51:30.226Z,7.37
2018-05-26T17:53:58.382Z,9.97
2018-05-26T17:56:25.879Z,9.93
2018-05-26T17:58:53.326Z,9.37
2018-05-26T18:01:20.822Z,7.23
2018-05-26T18:03:48.263Z,11.13
2018-05-26T18:06:16.994Z,8.17
2018-05-26T18:08:44.435Z,7.87
2018-05-26T18:11:12.670Z,8.87
2018-05-26T18:13:40.118Z,11.40
2018-05-26T18:16:07.571Z,16.23
2018-05-26T18:18:35.046Z,6.50
2018-05-26T18:21:03.103Z,11.17
2018-05-26T18:23:30.559Z,15.00
2018-05-26T18:25:58.058Z,5.63
2018-05-26T18:28:25.446Z,4.97
2018-05-26T18:30:52.895Z,5.13
2018-05-26T18:33:20.378Z,5.23
2018-05-26T18:35:48.278Z,5.40
2018-05-26T18:38:15.765Z,4.83
2018-05-26T18:40:44.004Z,5.30
2018-05-26T18:43:11.467Z,5.03
2018-05-26T18:45:38.915Z,4.80
2018-05-26T18:48:06.363Z,4.60
2018-05-26T18:50:33.831Z,6.40
2018-05-26T18:53:01.288Z,4.87
2018-05-26T18:55:28.736Z,4.80
2018-05-26T18:57:56.182Z,4.63
2018-05-26T19:00:23.662Z,6.43
2018-05-26T19:02:51.093Z,6.17
2018-05-26T19:05:18.554Z,6.30
2018-05-26T19:07:47.371Z,5.20
2018-05-26T19:10:14.805Z,5.80
2018-05-26T19:12:43.099Z,6.63
2018-05-26T19:15:11.527Z,5.53
2018-05-26T19:17:39.172Z,6.07
2018-05-26T19:20:07.828Z,7.00
2018-05-26T19:22:35.307Z,6.90
2018-05-26T19:25:03.280Z,6.57
2018-05-26T19:27:31.539Z,5.93
2018-05-26T19:29:59.014Z,7.07
2018-05-26T19:32:27.254Z,5.83
2018-05-26T19:34:55.129Z,6.93
2018-05-26T19:37:22.605Z,9.20
2018-05-26T19:39:50.847Z,7.53
2018-05-26T19:42:18.299Z,6.90
2018-05-26T19:44:46.972Z,8.90
2018-05-26T19:47:14.463Z,7.60
2018-05-26T19:49:43.443Z,7.43
2018-05-26T19:52:10.920Z,8.07
2018-05-26T19:54:38.396Z,7.93
2018-05-26T19:57:06.640Z,7.47
2018-05-26T19:59:34.126Z,8.33
2018-05-26T20:02:03.363Z,8.03
2018-05-26T20:04:31.187Z,6.80
2018-05-26T20:06:58.636Z,7.00
2018-05-26T20:09:26.103Z,6.70
2018-05-26T20:11:53.578Z,7.37
2018-05-26T20:14:21.821Z,6.37
2018-05-26T20:16:50.238Z,8.17
2018-05-26T20:19:18.562Z,7.17
2018-05-26T20:21:46.771Z,6.63
2018-05-26T20:24:14.247Z,6.60
2018-05-26T20:26:41.739Z,6.93
2018-05-26T20:29:09.227Z,7.23
2018-05-26T20:31:36.665Z,6.53
2018-05-26T20:34:05.119Z,7.43
2018-05-26T20:36:32.570Z,6.93
2018-05-26T20:39:00.839Z,5.97
2018-05-26T20:41:28.309Z,6.87
2018-05-26T20:43:56.377Z,7.40
2018-05-26T20:46:23.811Z,6.43
2018-05-26T20:48:51.298Z,7.03
2018-05-26T20:51:18.759Z,7.53
2018-05-26T20:53:46.210Z,6.40
2018-05-26T20:56:13.672Z,7.23
2018-05-26T20:58:41.124Z,7.03
2018-05-26T21:01:08.602Z,6.80
2018-05-26T21:03:36.959Z,6.00
2018-05-26T21:06:04.414Z,6.57
2018-05-26T21:08:31.882Z,11.30
2018-05-26T21:10:59.326Z,6.93
2018-05-26T21:13:26.778Z,6.70
2018-05-26T21:15:54.220Z,6.40
2018-05-26T21:18:21.667Z,6.93
2018-05-26T21:20:50.314Z,6.77
2018-05-26T21:23:18.613Z,6.77
2018-05-26T21:25:46.080Z,9.23
2018-05-26T21:28:14.322Z,6.80
2018-05-26T21:30:41.758Z,6.93
2018-05-26T21:33:09.695Z,7.27
2018-05-26T21:35:37.945Z,9.27
2018-05-26T21:38:05.421Z,6.77
2018-05-26T21:40:33.654Z,6.60
2018-05-26T21:43:01.099Z,6.70
2018-05-26T21:45:28.558Z,6.60
2018-05-26T21:47:56.921Z,8.90
2018-05-26T21:50:24.407Z,6.23
2018-05-26T21:52:52.687Z,7.60
2018-05-26T21:55:20.149Z,7.23
2018-05-26T21:57:47.598Z,6.97
2018-05-26T22:00:15.283Z,6.93
2018-05-26T22:02:42.759Z,6.20
2018-05-26T22:05:10.963Z,6.90
2018-05-26T22:07:38.446Z,6.73
2018-05-26T22:10:05.917Z,7.00
2018-05-26T22:12:33.390Z,6.50
2018-05-26T22:15:01.627Z,7.20
2018-05-26T22:17:29.102Z,6.83
2018-05-26T22:19:56.543Z,6.60
2018-05-26T22:22:24.021Z,7.30
2018-05-26T22:24:51.499Z,7.63
2018-05-26T22:27:20.270Z,9.20
2018-05-26T22:29:48.906Z,7.73
2018-05-26T22:32:16.398Z,7.67
2018-05-26T22:34:44.778Z,7.73
2018-05-26T22:37:12.210Z,7.47
2018-05-26T22:39:40.205Z,7.70
2018-05-26T22:42:07.680Z,9.00
2018-05-26T22:44:35.154Z,7.77
2018-05-26T22:47:03.367Z,7.63
2018-05-26T22:49:30.851Z,7.40
2018-05-26T22:51:58.323Z,7.73
2018-05-26T22:54:25.794Z,7.60
2018-05-26T22:56:54.373Z,8.80
2018-05-26T22:59:21.818Z,16.47
2018-05-26T23:01:49.275Z,8.03
2018-05-26T23:04:16.728Z,8.23
2018-05-26T23:06:44.570Z,7.90
2018-05-26T23:09:12.026Z,9.13
2018-05-26T23:11:39.498Z,9.60
2018-05-26T23:14:06.983Z,8.73
2018-05-26T23:16:34.439Z,8.50
2018-05-26T23:19:02.789Z,9.37
2018-05-26T23:21:30.262Z,8.53
2018-05-26T23:23:57.727Z,8.43
2018-05-26T23:26:26.615Z,10.63
2018-05-26T23:28:54.827Z,12.07
2018-05-26T23:31:23.211Z,8.00
2018-05-26T23:33:51.488Z,9.97
2018-05-26T23:36:18.958Z,9.07
2018-05-26T23:38:46.397Z,9.47
2018-05-26T23:41:13.884Z,9.97
2018-05-26T23:43:41.344Z,9.90
2018-05-26T23:46:08.799Z,9.93
2018-05-26T23:48:36.289Z,9.77
2018-05-26T23:51:04.587Z,8.97
2018-05-26T23:53:32.782Z,8.57
2018-05-26T23:56:00.236Z,8.47
2018-05-26T23:58:28.062Z,8.30
